Time;durP1;ratioP1;P1;durP2;ratioP2;P2;SDS_P1;SDS_P2;PMS_P1;PMS_P2;Temp;Humidity;BMP_temperature;BMP_pressure;BME280_temperature;BME280_humidity;BME280_pressure;Samples;Min_cycle;Max_cycle;Signal;HPM_P1;HPM_P2
2021/12/31 00:01:40;;;;;;;12.15;3.88;;;12.20;99.90;;;;;;4993133;28;20045;-78
2021/12/31 00:04:06;;;;;;;13.30;3.60;;;12.10;99.90;;;;;;4975541;28;20039;-78
2021/12/31 00:06:32;;;;;;;17.40;4.43;;;12.10;99.90;;;;;;4992927;28;20046;-79
2021/12/31 00:08:58;;;;;;;12.98;3.95;;;12.10;99.90;;;;;;4993217;28;20050;-77
2021/12/31 00:11:23;;;;;;;16.45;4.78;;;12.50;99.90;;;;;;4975626;28;20130;-79
2021/12/31 00:13:49;;;;;;;14.68;4.43;;;12.40;99.90;;;;;;4993191;28;20113;-77
2021/12/31 00:16:15;;;;;;;12.35;3.75;;;12.20;99.90;;;;;;4993267;28;20049;-78
2021/12/31 00:18:40;;;;;;;15.50;4.25;;;12.20;99.90;;;;;;4993136;28;20403;-77
2021/12/31 00:21:06;;;;;;;12.38;3.65;;;12.20;99.90;;;;;;4993508;28;20094;-78
2021/12/31 00:23:32;;;;;;;14.70;3.65;;;12.20;99.90;;;;;;4993217;28;20397;-79
2021/12/31 00:25:58;;;;;;;13.35;3.60;;;12.20;99.90;;;;;;4993911;28;20049;-79
2021/12/31 00:28:23;;;;;;;12.88;3.30;;;12.20;99.90;;;;;;4983295;28;20054;-80
2021/12/31 00:30:52;;;;;;;15.65;3.65;;;12.20;99.90;;;;;;5000795;28;20385;-78
2021/12/31 00:33:18;;;;;;;13.98;3.30;;;12.20;99.90;;;;;;4991825;28;20046;-85
2021/12/31 00:35:44;;;;;;;10.77;2.92;;;12.20;99.90;;;;;;4992688;28;20045;-80
2021/12/31 00:38:09;;;;;;;14.90;3.45;;;12.30;99.90;;;;;;5010690;28;20098;-81
2021/12/31 00:40:35;;;;;;;10.23;3.33;;;12.20;99.90;;;;;;4989861;28;20046;-78
2021/12/31 00:43:03;;;;;;;16.38;3.67;;;12.20;99.90;;;;;;4999293;28;20377;-79
2021/12/31 00:45:30;;;;;;;9.93;2.80;;;12.20;99.90;;;;;;4998621;28;20046;-78
2021/12/31 00:47:56;;;;;;;9.00;2.70;;;12.10;99.90;;;;;;4995996;28;20082;-86
2021/12/31 00:50:22;;;;;;;14.45;2.75;;;12.20;99.90;;;;;;4993012;28;20069;-86
2021/12/31 00:52:48;;;;;;;11.50;2.75;;;12.20;99.90;;;;;;4992922;28;20122;-85
2021/12/31 00:55:14;;;;;;;10.98;3.03;;;12.20;99.90;;;;;;4975489;28;20046;-86
2021/12/31 00:57:40;;;;;;;17.35;3.05;;;12.30;99.90;;;;;;4994638;28;20137;-82
2021/12/31 01:00:08;;;;;;;13.23;3.13;;;12.20;99.90;;;;;;4979677;28;20093;-79
2021/12/31 01:05:05;;;;;;;11.43;3.25;;;12.20;99.90;;;;;;5033246;28;20503;-85
2021/12/31 01:07:31;;;;;;;13.13;3.85;;;12.00;99.90;;;;;;5036141;28;20053;-85
2021/12/31 01:09:57;;;;;;;16.05;4.25;;;12.20;99.90;;;;;;5035615;28;20507;-81
2021/12/31 01:12:25;;;;;;;13.63;3.58;;;12.20;99.90;;;;;;5035884;28;20099;-82
2021/12/31 01:15:02;;;;;;;14.95;4.13;;;12.20;99.90;;;;;;5018191;28;20446;-83
2021/12/31 01:20:06;;;;;;;11.50;3.78;;;12.60;99.90;;;;;;5035592;28;20099;-83
2021/12/31 01:22:33;;;;;;;16.48;4.22;;;12.20;99.90;;;;;;5035453;28;20099;-76
2021/12/31 01:25:00;;;;;;;15.88;4.10;;;12.20;99.90;;;;;;5035192;28;20045;-78
2021/12/31 01:27:25;;;;;;;12.45;3.97;;;12.20;99.90;;;;;;5035721;28;20084;-79
2021/12/31 01:29:52;;;;;;;15.25;4.15;;;12.20;99.90;;;;;;5035322;28;20068;-78
2021/12/31 01:32:18;;;;;;;17.80;3.40;;;12.20;99.90;;;;;;5035336;28;20088;-77
2021/12/31 01:34:44;;;;;;;14.30;3.83;;;12.20;99.90;;;;;;5035170;28;20073;-78
2021/12/31 01:37:10;;;;;;;13.80;3.97;;;12.20;99.90;;;;;;5034911;28;20120;-77
2021/12/31 01:39:36;;;;;;;12.25;4.18;;;12.20;99.90;;;;;;5035418;28;20148;-78
2021/12/31 01:42:06;;;;;;;14.10;4.15;;;12.20;99.90;;;;;;5034819;28;20037;-77
2021/12/31 01:44:38;;;;;;;15.55;4.60;;;12.20;99.90;;;;;;5034892;28;20052;-77
2021/12/31 01:47:08;;;;;;;12.57;4.25;;;12.20;99.90;;;;;;5034826;28;20124;-79
2021/12/31 01:49:37;;;;;;;12.07;3.78;;;12.20;99.90;;;;;;5034762;28;20049;-78
2021/12/31 01:52:05;;;;;;;18.90;4.65;;;12.20;99.90;;;;;;5034878;28;20123;-77
2021/12/31 01:54:31;;;;;;;15.13;4.07;;;12.20;99.90;;;;;;5034916;28;20048;-78
2021/12/31 01:57:00;;;;;;;13.25;3.97;;;12.40;99.90;;;;;;5017275;28;20052;-78
2021/12/31 01:59:27;;;;;;;12.95;4.38;;;12.60;99.90;;;;;;5034565;28;20068;-78
2021/12/31 02:01:54;;;;;;;18.23;4.00;;;12.20;99.90;;;;;;5000370;28;20124;-78
2021/12/31 02:04:20;;;;;;;13.75;4.47;;;12.30;99.90;;;;;;5034046;28;20080;-78
2021/12/31 02:06:46;;;;;;;13.40;4.07;;;12.20;99.90;;;;;;5016840;28;20490;-77
2021/12/31 02:09:13;;;;;;;18.90;4.35;;;12.20;99.90;;;;;;5034072;28;20042;-78
2021/12/31 02:11:39;;;;;;;20.85;4.20;;;12.40;99.90;;;;;;5034373;28;20045;-79
2021/12/31 02:14:05;;;;;;;16.05;4.63;;;12.20;99.90;;;;;;5034454;28;20073;-78
2021/12/31 02:16:32;;;;;;;15.25;4.28;;;12.20;99.90;;;;;;5034263;28;20041;-78
2021/12/31 02:19:14;;;;;;;19.27;4.82;;;12.20;99.90;;;;;;5033827;28;20041;-78
2021/12/31 02:21:45;;;;;;;15.73;4.35;;;12.20;99.90;;;;;;5034414;28;20081;-79
2021/12/31 02:24:12;;;;;;;13.43;3.67;;;12.60;99.90;;;;;;5033025;28;20086;-78
2021/12/31 02:26:38;;;;;;;11.63;3.20;;;12.30;99.90;;;;;;5034161;28;20403;-78
2021/12/31 02:29:04;;;;;;;15.18;3.70;;;12.20;99.90;;;;;;5034147;28;20038;-78
2021/12/31 02:31:30;;;;;;;12.88;3.85;;;12.30;99.90;;;;;;5033958;28;20453;-79
2021/12/31 02:33:56;;;;;;;13.10;3.58;;;12.30;99.90;;;;;;5033984;28;20037;-78
2021/12/31 02:36:22;;;;;;;18.13;4.22;;;12.30;99.90;;;;;;5032998;28;20060;-78
2021/12/31 02:38:47;;;;;;;11.10;3.97;;;12.30;99.90;;;;;;5033964;28;20113;-79
2021/12/31 02:41:13;;;;;;;13.57;3.58;;;12.30;99.90;;;;;;4999826;28;20522;-78
2021/12/31 02:43:39;;;;;;;14.18;4.05;;;12.50;99.90;;;;;;5033715;28;20038;-78
2021/12/31 02:46:05;;;;;;;11.85;3.72;;;12.30;99.90;;;;;;5033759;28;20141;-78
2021/12/31 02:48:31;;;;;;;10.43;3.80;;;12.40;99.90;;;;;;5033735;28;20081;-78
2021/12/31 02:50:58;;;;;;;13.45;4.07;;;12.40;99.90;;;;;;5034029;28;20049;-79
2021/12/31 02:53:36;;;;;;;13.73;4.68;;;12.40;99.90;;;;;;5033898;28;20046;-77
2021/12/31 02:56:08;;;;;;;11.55;3.70;;;12.40;99.90;;;;;;5033548;28;20061;-78
2021/12/31 02:58:34;;;;;;;12.10;4.00;;;12.40;99.90;;;;;;5015842;28;20060;-78
2021/12/31 03:01:00;;;;;;;13.00;4.63;;;12.40;99.90;;;;;;5034088;28;20049;-79
2021/12/31 03:03:28;;;;;;;11.48;3.90;;;12.50;99.90;;;;;;5033536;28;20396;-78
2021/12/31 03:05:55;;;;;;;10.07;3.65;;;12.60;99.90;;;;;;5033176;28;20057;-78
2021/12/31 03:08:24;;;;;;;14.98;3.80;;;12.50;99.90;;;;;;5033460;28;20421;-79
2021/12/31 03:10:52;;;;;;;10.40;3.50;;;12.50;99.90;;;;;;5033249;28;20045;-78
2021/12/31 03:13:18;;;;;;;10.43;3.60;;;12.70;99.90;;;;;;5015367;28;20134;-76
2021/12/31 03:15:43;;;;;;;12.10;3.78;;;12.50;99.90;;;;;;5015344;28;20072;-78
2021/12/31 03:18:11;;;;;;;10.77;3.42;;;12.50;99.90;;;;;;5033279;28;20123;-78
2021/12/31 03:20:41;;;;;;;12.60;4.00;;;12.50;99.90;;;;;;5032496;28;20081;-78
2021/12/31 03:23:08;;;;;;;10.25;4.20;;;12.80;99.90;;;;;;5033172;28;20041;-78
2021/12/31 03:25:34;;;;;;;12.63;4.18;;;12.60;99.90;;;;;;5032843;28;20049;-79
2021/12/31 03:28:00;;;;;;;15.98;4.32;;;12.50;99.90;;;;;;5032988;28;20047;-78
2021/12/31 03:30:26;;;;;;;12.38;5.18;;;12.60;99.90;;;;;;5015247;28;20053;-78
2021/12/31 03:32:52;;;;;;;9.13;4.13;;;12.60;99.90;;;;;;5015201;28;20044;-78
2021/12/31 03:35:18;;;;;;;10.07;4.85;;;12.50;99.90;;;;;;5015361;28;20487;-78
2021/12/31 03:37:44;;;;;;;11.52;4.82;;;12.60;99.90;;;;;;5033143;28;20041;-79
2021/12/31 03:40:11;;;;;;;8.75;4.65;;;12.60;99.90;;;;;;5033104;28;20087;-79
2021/12/31 03:42:36;;;;;;;14.13;5.28;;;12.60;99.90;;;;;;5032798;28;20046;-80
2021/12/31 03:45:03;;;;;;;13.32;5.10;;;12.60;99.90;;;;;;5032385;28;20056;-77
2021/12/31 03:47:28;;;;;;;11.68;5.15;;;12.60;99.90;;;;;;4998020;28;20104;-78
2021/12/31 03:49:54;;;;;;;11.30;5.43;;;12.80;99.90;;;;;;5032776;28;20068;-77
2021/12/31 03:52:20;;;;;;;13.63;5.13;;;12.60;99.90;;;;;;5032740;28;20099;-79
2021/12/31 03:54:45;;;;;;;9.57;4.97;;;12.60;99.90;;;;;;5014820;28;20060;-77
2021/12/31 03:57:11;;;;;;;11.93;5.45;;;12.60;99.90;;;;;;5032459;28;20042;-79
2021/12/31 03:59:36;;;;;;;13.32;5.53;;;12.60;99.90;;;;;;5032550;28;20056;-77
2021/12/31 04:02:02;;;;;;;11.35;4.65;;;12.60;99.90;;;;;;5015075;28;20041;-79
2021/12/31 04:04:28;;;;;;;10.57;5.15;;;12.60;99.90;;;;;;5014390;28;20509;-79
2021/12/31 04:06:54;;;;;;;14.15;5.30;;;12.60;99.90;;;;;;5032682;28;20045;-77
2021/12/31 04:09:20;;;;;;;11.93;5.00;;;12.70;99.90;;;;;;5032600;28;20125;-77
2021/12/31 04:11:46;;;;;;;10.10;4.70;;;12.60;99.90;;;;;;5014930;28;20487;-78
2021/12/31 04:14:11;;;;;;;10.65;4.80;;;13.00;99.90;;;;;;5032090;28;20061;-82
2021/12/31 04:16:37;;;;;;;11.10;4.63;;;12.60;99.90;;;;;;5018053;28;20045;-80
2021/12/31 04:19:02;;;;;;;10.75;4.03;;;12.70;99.90;;;;;;5039447;28;20522;-79
2021/12/31 04:21:30;;;;;;;8.75;4.07;;;12.60;99.90;;;;;;5026405;28;20042;-84
2021/12/31 04:24:26;;;;;;;9.27;4.13;;;12.60;99.90;;;;;;5009483;28;20044;-80
2021/12/31 04:26:52;;;;;;;9.52;4.03;;;12.60;99.90;;;;;;5019502;28;20053;-81
2021/12/31 04:29:17;;;;;;;9.95;3.60;;;12.60;99.90;;;;;;5019268;28;20481;-80
2021/12/31 04:31:43;;;;;;;9.43;4.10;;;12.60;99.90;;;;;;5015058;28;20487;-80
2021/12/31 04:34:08;;;;;;;11.57;4.53;;;12.60;99.90;;;;;;5018544;28;20091;-79
2021/12/31 04:36:34;;;;;;;9.07;3.47;;;12.60;99.90;;;;;;5036135;28;20056;-78
2021/12/31 04:39:00;;;;;;;11.20;4.00;;;12.60;99.90;;;;;;5036057;28;20054;-81
2021/12/31 04:41:26;;;;;;;10.57;4.38;;;12.60;99.90;;;;;;5036157;28;20046;-80
2021/12/31 04:43:51;;;;;;;8.50;3.53;;;12.60;99.90;;;;;;5035693;28;20056;-79
2021/12/31 04:46:17;;;;;;;9.50;4.18;;;12.70;99.90;;;;;;5036092;28;20096;-78
2021/12/31 04:48:43;;;;;;;9.48;4.80;;;12.60;99.90;;;;;;5036042;28;20514;-80
2021/12/31 04:51:08;;;;;;;13.13;5.07;;;12.60;99.90;;;;;;5036126;28;20041;-79
2021/12/31 04:53:34;;;;;;;15.13;5.25;;;12.80;99.90;;;;;;5035897;28;20099;-79
2021/12/31 04:56:00;;;;;;;10.15;5.28;;;12.70;99.90;;;;;;5035700;28;20045;-79
2021/12/31 04:58:26;;;;;;;10.65;4.93;;;12.60;99.90;;;;;;5035582;28;20076;-80
2021/12/31 05:00:51;;;;;;;12.23;5.30;;;12.90;99.90;;;;;;5017679;28;20057;-80
2021/12/31 05:03:17;;;;;;;10.00;4.82;;;13.00;99.90;;;;;;5035831;28;20411;-79
2021/12/31 05:05:43;;;;;;;9.35;4.70;;;12.90;99.90;;;;;;5035384;28;20053;-80
2021/12/31 05:08:09;;;;;;;11.05;5.15;;;12.80;99.90;;;;;;5035449;28;20450;-79
2021/12/31 05:10:34;;;;;;;11.63;5.35;;;12.90;99.90;;;;;;5035641;28;20048;-75
2021/12/31 05:13:02;;;;;;;12.02;5.57;;;12.70;99.90;;;;;;5035401;28;20053;-77
2021/12/31 05:15:32;;;;;;;15.30;6.72;;;12.70;99.90;;;;;;5017627;28;20116;-78
2021/12/31 05:17:58;;;;;;;12.60;5.70;;;12.70;99.90;;;;;;5035511;28;20037;-78
2021/12/31 05:20:24;;;;;;;11.80;5.65;;;12.70;99.90;;;;;;5017529;28;20045;-78
2021/12/31 05:22:50;;;;;;;10.57;6.40;;;12.60;99.90;;;;;;5035237;28;20041;-79
2021/12/31 05:25:17;;;;;;;12.70;5.90;;;12.70;99.90;;;;;;5035463;28;20042;-79
2021/12/31 05:27:42;;;;;;;12.10;6.18;;;12.60;99.90;;;;;;5017420;28;20129;-79
2021/12/31 05:30:09;;;;;;;11.85;5.38;;;12.80;99.90;;;;;;5035174;28;20124;-77
2021/12/31 05:32:34;;;;;;;10.40;5.15;;;12.70;99.90;;;;;;5017402;28;20037;-78
2021/12/31 05:35:00;;;;;;;10.85;4.93;;;12.70;99.90;;;;;;5017166;28;20057;-79
2021/12/31 05:37:26;;;;;;;8.25;4.70;;;12.70;99.90;;;;;;5033397;28;20059;-78
2021/12/31 05:39:51;;;;;;;10.15;4.47;;;12.70;99.90;;;;;;5034957;28;20064;-78
2021/12/31 05:42:17;;;;;;;10.88;4.78;;;12.60;99.90;;;;;;5017049;28;20096;-77
2021/12/31 05:44:42;;;;;;;12.35;4.80;;;12.70;99.90;;;;;;5033896;28;20045;-79
2021/12/31 05:47:08;;;;;;;10.38;4.60;;;12.70;99.90;;;;;;5017092;28;20458;-79
2021/12/31 05:49:34;;;;;;;10.15;4.45;;;12.70;99.90;;;;;;5034704;28;20060;-79
2021/12/31 05:51:59;;;;;;;9.80;4.07;;;12.70;99.90;;;;;;5034800;28;20084;-78
2021/12/31 05:54:25;;;;;;;13.93;4.57;;;12.80;99.90;;;;;;5034864;28;20049;-79
2021/12/31 05:56:51;;;;;;;9.35;3.88;;;12.70;99.90;;;;;;5016911;28;20049;-78
2021/12/31 05:59:17;;;;;;;8.15;3.47;;;12.70;99.90;;;;;;5034626;28;20517;-78
2021/12/31 06:01:42;;;;;;;12.38;4.10;;;12.70;99.90;;;;;;5034447;28;20056;-78
2021/12/31 06:04:08;;;;;;;10.00;3.67;;;12.70;99.90;;;;;;5016284;28;20463;-78
2021/12/31 06:06:34;;;;;;;10.57;3.80;;;12.70;99.90;;;;;;5034561;28;20057;-80
2021/12/31 06:09:00;;;;;;;10.77;4.03;;;12.70;99.90;;;;;;5034429;28;20053;-78
2021/12/31 06:11:25;;;;;;;10.77;3.83;;;12.70;99.90;;;;;;5016512;28;20049;-79
2021/12/31 06:14:00;;;;;;;8.15;3.78;;;12.90;99.90;;;;;;5034303;28;20045;-80
2021/12/31 06:16:27;;;;;;;8.90;3.50;;;12.80;99.90;;;;;;5017472;28;20131;-77
2021/12/31 06:18:53;;;;;;;9.18;3.85;;;12.80;99.90;;;;;;5034472;28;20045;-78
2021/12/31 06:21:19;;;;;;;8.80;3.70;;;12.80;99.90;;;;;;5034428;28;20048;-79
2021/12/31 06:23:44;;;;;;;7.88;3.28;;;12.80;99.90;;;;;;5001500;28;20080;-80
2021/12/31 06:26:10;;;;;;;8.77;2.80;;;12.90;99.90;;;;;;5035763;28;20042;-78
2021/12/31 06:28:36;;;;;;;8.88;2.95;;;12.80;99.90;;;;;;5034664;28;20037;-80
2021/12/31 06:31:01;;;;;;;9.27;3.00;;;12.80;99.90;;;;;;5035565;28;20052;-81
2021/12/31 06:33:27;;;;;;;6.63;2.75;;;12.80;99.90;;;;;;5036124;28;20395;-77
2021/12/31 06:35:54;;;;;;;8.85;2.85;;;12.80;99.90;;;;;;5035550;28;20048;-78
2021/12/31 06:38:20;;;;;;;9.10;2.85;;;12.80;99.90;;;;;;5036044;28;20044;-80
2021/12/31 06:40:46;;;;;;;8.52;3.25;;;12.80;99.90;;;;;;5015369;28;20056;-81
2021/12/31 06:43:11;;;;;;;6.72;2.70;;;12.90;99.90;;;;;;5016068;28;20045;-77
2021/12/31 06:45:37;;;;;;;6.13;2.65;;;12.80;99.90;;;;;;5033772;28;20056;-78
2021/12/31 06:48:04;;;;;;;9.55;3.00;;;12.70;99.90;;;;;;5034283;28;20041;-79
2021/12/31 06:50:30;;;;;;;8.85;2.63;;;12.70;99.90;;;;;;5033763;28;20080;-79
2021/12/31 06:52:55;;;;;;;11.15;2.95;;;13.20;99.90;;;;;;5033918;28;20065;-76
2021/12/31 06:55:21;;;;;;;8.48;2.83;;;12.70;99.90;;;;;;5034480;28;20116;-77
2021/12/31 06:57:49;;;;;;;7.78;2.60;;;12.80;99.90;;;;;;5033926;28;20049;-77
2021/12/31 07:00:15;;;;;;;8.63;2.67;;;12.60;99.90;;;;;;5033994;28;20056;-79
2021/12/31 07:02:41;;;;;;;6.95;2.80;;;12.60;99.90;;;;;;5034021;28;20051;-79
2021/12/31 07:05:07;;;;;;;6.47;2.60;;;12.70;99.90;;;;;;5033524;28;20491;-81
2021/12/31 07:07:33;;;;;;;8.88;2.70;;;12.60;99.90;;;;;;5016200;28;20053;-78
2021/12/31 07:09:59;;;;;;;7.45;2.80;;;12.70;99.90;;;;;;5033411;28;20550;-80
2021/12/31 07:12:24;;;;;;;7.05;2.65;;;12.70;99.90;;;;;;5033769;28;20438;-82
2021/12/31 07:14:50;;;;;;;7.88;2.65;;;12.70;99.90;;;;;;5033281;28;20091;-81
2021/12/31 07:17:16;;;;;;;8.13;2.80;;;12.60;99.90;;;;;;5015787;28;20050;-81
2021/12/31 07:19:43;;;;;;;8.05;2.60;;;12.60;99.90;;;;;;5015847;28;20041;-78
2021/12/31 07:22:09;;;;;;;8.32;2.63;;;12.60;99.90;;;;;;5033791;28;20045;-78
2021/12/31 07:24:35;;;;;;;9.60;2.55;;;12.60;99.90;;;;;;5033450;28;20053;-78
2021/12/31 07:27:01;;;;;;;6.97;2.50;;;12.80;99.90;;;;;;5033423;28;20037;-78
2021/12/31 07:29:26;;;;;;;7.40;2.20;;;12.50;99.90;;;;;;5033071;28;20049;-77
2021/12/31 07:31:52;;;;;;;5.75;2.10;;;12.50;99.90;;;;;;5033102;28;20045;-78
2021/12/31 07:34:18;;;;;;;8.00;2.03;;;12.60;99.90;;;;;;5033314;28;20056;-78
2021/12/31 07:36:43;;;;;;;10.77;4.88;;;12.60;99.90;;;;;;5033416;28;20495;-79
2021/12/31 07:39:12;;;;;;;7.07;2.35;;;12.50;99.90;;;;;;5015793;28;20045;-79
2021/12/31 07:41:38;;;;;;;7.40;2.60;;;12.50;99.90;;;;;;5032999;28;20073;-79
2021/12/31 07:44:04;;;;;;;5.85;2.30;;;12.50;99.90;;;;;;5015308;28;20546;-78
2021/12/31 07:46:29;;;;;;;6.10;2.22;;;12.50;99.90;;;;;;5033154;28;20038;-78
2021/12/31 07:48:55;;;;;;;6.30;2.05;;;12.60;99.90;;;;;;5033165;28;20124;-78
2021/12/31 07:51:21;;;;;;;6.10;2.25;;;12.60;99.90;;;;;;5032768;28;20041;-79
2021/12/31 07:53:46;;;;;;;7.20;2.10;;;12.50;99.90;;;;;;5032733;28;20068;-79
2021/12/31 07:56:12;;;;;;;7.25;2.25;;;12.60;99.90;;;;;;5032740;28;20084;-79
2021/12/31 07:58:38;;;;;;;6.85;2.45;;;12.60;99.90;;;;;;5014672;28;20136;-79
2021/12/31 08:01:03;;;;;;;6.75;2.15;;;12.50;99.90;;;;;;5032654;28;20129;-81
2021/12/31 08:03:31;;;;;;;7.25;2.53;;;12.50;99.90;;;;;;5032406;28;20076;-78
2021/12/31 08:05:56;;;;;;;7.15;2.30;;;12.50;99.90;;;;;;5011599;28;20061;-77
2021/12/31 08:08:22;;;;;;;8.20;2.55;;;12.40;99.90;;;;;;5011766;28;20050;-81
2021/12/31 08:10:48;;;;;;;7.32;2.10;;;12.40;99.90;;;;;;5015288;28;20077;-79
2021/12/31 08:13:14;;;;;;;6.97;2.30;;;12.40;99.90;;;;;;5032697;28;20066;-78
2021/12/31 08:15:40;;;;;;;8.73;2.20;;;12.40;99.90;;;;;;5060855;23;20057;-81
2021/12/31 08:18:05;;;;;;;4.53;2.00;;;12.50;99.90;;;;;;5044350;28;20085;-81
2021/12/31 08:20:31;;;;;;;5.90;2.40;;;12.60;99.90;;;;;;5038298;28;20052;-78
2021/12/31 08:23:05;;;;;;;7.30;2.30;;;12.40;99.90;;;;;;5033901;28;20050;-78
2021/12/31 08:25:31;;;;;;;5.22;2.00;;;12.40;99.90;;;;;;5032413;28;20041;-78
2021/12/31 08:27:56;;;;;;;7.07;2.42;;;12.40;99.90;;;;;;5032431;28;20476;-78
2021/12/31 08:30:22;;;;;;;8.68;2.50;;;12.40;99.90;;;;;;5032183;28;20033;-78
2021/12/31 08:32:48;;;;;;;7.20;2.20;;;12.50;99.90;;;;;;4998480;28;20057;-79
2021/12/31 08:35:13;;;;;;;5.43;2.20;;;12.80;99.90;;;;;;5032212;28;20452;-78
2021/12/31 08:37:39;;;;;;;7.88;2.88;;;12.50;99.90;;;;;;5032305;28;20049;-79
2021/12/31 08:40:06;;;;;;;6.93;2.35;;;12.60;99.90;;;;;;5031975;28;20120;-79
2021/12/31 08:42:31;;;;;;;5.85;2.05;;;12.50;99.90;;;;;;5032122;28;20104;-79
2021/12/31 08:44:57;;;;;;;5.30;2.10;;;12.50;99.90;;;;;;5032009;28;20045;-79
2021/12/31 08:47:23;;;;;;;6.13;1.95;;;12.50;99.90;;;;;;5031997;28;20042;-80
2021/12/31 08:49:49;;;;;;;5.40;2.00;;;12.80;99.90;;;;;;5030139;28;20467;-79
2021/12/31 08:52:15;;;;;;;8.80;2.58;;;12.30;99.90;;;;;;5032035;28;20041;-79
2021/12/31 08:54:40;;;;;;;6.85;2.20;;;12.30;99.90;;;;;;5032175;28;20044;-79
2021/12/31 08:57:06;;;;;;;6.40;2.13;;;12.30;99.90;;;;;;5031960;28;20052;-78
2021/12/31 08:59:32;;;;;;;6.45;2.05;;;12.30;99.90;;;;;;5031058;28;20450;-79
2021/12/31 09:01:58;;;;;;;8.77;4.05;;;12.30;99.90;;;;;;5030755;28;20038;-79
2021/12/31 09:04:24;;;;;;;5.75;2.00;;;12.30;99.90;;;;;;5031551;28;20133;-79
2021/12/31 09:06:50;;;;;;;8.95;2.55;;;12.30;99.90;;;;;;5031909;28;20077;-79
2021/12/31 09:09:16;;;;;;;7.90;2.30;;;12.30;99.90;;;;;;5032063;28;20088;-78
2021/12/31 09:11:43;;;;;;;5.57;2.15;;;12.40;99.90;;;;;;5031911;28;20464;-78
2021/12/31 09:14:10;;;;;;;9.32;2.55;;;12.40;99.90;;;;;;5033332;28;20128;-78
2021/12/31 09:16:35;;;;;;;6.15;2.40;;;12.40;99.90;;;;;;5051762;28;20064;-77
2021/12/31 09:19:01;;;;;;;7.85;2.50;;;12.40;99.90;;;;;;5052085;28;20049;-78
2021/12/31 09:21:27;;;;;;;7.20;2.58;;;12.50;99.90;;;;;;5055238;28;20041;-78
2021/12/31 09:23:52;;;;;;;6.57;3.22;;;12.50;99.90;;;;;;5055250;28;20088;-79
2021/12/31 09:26:18;;;;;;;6.05;2.40;;;12.50;99.90;;;;;;5055291;28;20121;-78
2021/12/31 09:28:44;;;;;;;9.38;2.65;;;12.50;99.90;;;;;;5055211;28;20492;-78
2021/12/31 09:31:11;;;;;;;7.72;3.15;;;12.80;99.90;;;;;;5054963;28;20053;-78
2021/12/31 09:33:37;;;;;;;8.88;3.25;;;12.50;99.90;;;;;;5054792;28;20037;-80
2021/12/31 09:36:03;;;;;;;8.55;3.40;;;12.50;99.90;;;;;;5055024;28;20037;-78
2021/12/31 09:38:28;;;;;;;8.88;3.00;;;12.60;99.90;;;;;;5054905;28;20037;-78
2021/12/31 09:40:55;;;;;;;7.75;2.88;;;12.50;99.90;;;;;;5055064;28;20095;-78
2021/12/31 09:43:20;;;;;;;9.95;3.35;;;12.60;99.90;;;;;;5054869;28;20043;-80
2021/12/31 09:45:50;;;;;;;7.82;2.92;;;12.50;99.90;;;;;;5037061;28;20045;-79
2021/12/31 09:48:20;;;;;;;12.13;3.25;;;12.60;99.90;;;;;;5054625;28;20041;-79
2021/12/31 09:50:50;;;;;;;7.72;2.88;;;12.60;99.90;;;;;;5054709;28;20055;-79
2021/12/31 09:53:18;;;;;;;7.85;2.75;;;12.60;99.90;;;;;;5054700;28;20512;-80
2021/12/31 09:55:52;;;;;;;7.85;2.40;;;12.70;99.90;;;;;;5036771;28;20052;-78
2021/12/31 09:58:19;;;;;;;5.72;2.50;;;12.70;99.90;;;;;;5054486;28;20037;-79
2021/12/31 10:00:47;;;;;;;7.75;3.13;;;12.70;99.90;;;;;;5054691;28;20037;-77
2021/12/31 10:03:25;;;;;;;8.95;2.53;;;13.00;99.90;;;;;;5054298;28;20401;-80
2021/12/31 10:05:58;;;;;;;5.85;2.05;;;12.70;99.90;;;;;;5054258;28;20494;-79
2021/12/31 10:08:26;;;;;;;4.45;1.80;;;12.60;99.90;;;;;;5054328;28;20127;-80
2021/12/31 10:11:17;;;;;;;11.82;5.20;;;12.60;99.90;;;;;;5054521;28;20049;-79
2021/12/31 10:13:56;;;;;;;12.60;6.43;;;12.60;99.90;;;;;;5054134;28;20055;-81
2021/12/31 10:16:43;;;;;;;12.00;6.07;;;12.60;99.90;;;;;;5036144;28;20166;-80
2021/12/31 10:19:15;;;;;;;27.20;16.85;;;12.60;99.90;;;;;;5054093;28;20040;-80
2021/12/31 10:21:46;;;;;;;12.40;6.38;;;12.50;99.90;;;;;;5054222;28;20044;-79
2021/12/31 10:24:23;;;;;;;9.38;4.93;;;12.50;99.90;;;;;;5053967;28;20044;-77
2021/12/31 10:26:50;;;;;;;9.73;5.93;;;12.50;99.90;;;;;;5054107;28;20048;-79
2021/12/31 10:29:16;;;;;;;16.83;11.63;;;12.50;99.90;;;;;;5054046;28;20048;-80
2021/12/31 10:31:44;;;;;;;12.18;9.65;;;12.50;99.90;;;;;;5053562;28;20076;-80
2021/12/31 10:34:32;;;;;;;18.42;14.70;;;12.50;99.90;;;;;;5053829;28;20049;-80
2021/12/31 10:37:26;;;;;;;9.57;5.10;;;12.60;99.90;;;;;;5053768;28;20051;-79
2021/12/31 10:40:01;;;;;;;17.83;11.75;;;12.60;99.90;;;;;;5053876;28;20045;-81
2021/12/31 10:42:29;;;;;;;11.63;6.70;;;12.60;99.90;;;;;;5053662;28;20037;-85
2021/12/31 10:44:57;;;;;;;12.25;6.30;;;12.60;99.90;;;;;;5053747;28;20041;-83
2021/12/31 10:47:47;;;;;;;14.45;7.60;;;12.60;99.90;;;;;;5035646;28;20114;-82
2021/12/31 10:50:16;;;;;;;20.08;17.77;;;12.70;99.90;;;;;;5019292;28;20559;-81
2021/12/31 10:53:00;;;;;;;14.40;9.95;;;12.90;99.90;;;;;;5035831;28;20083;-84
2021/12/31 10:55:30;;;;;;;10.88;5.40;;;12.70;99.90;;;;;;5019385;28;20059;-85
2021/12/31 10:57:59;;;;;;;172.23;116.13;;;12.60;99.90;;;;;;5053514;28;20040;-86
2021/12/31 11:00:27;;;;;;;26.65;20.23;;;12.60;99.90;;;;;;5053656;28;20399;-82
2021/12/31 11:02:53;;;;;;;18.27;13.57;;;12.60;99.90;;;;;;5053687;28;20087;-83
2021/12/31 11:05:22;;;;;;;17.95;14.63;;;12.60;99.90;;;;;;5053782;28;20077;-81
2021/12/31 11:07:49;;;;;;;17.60;13.20;;;12.50;99.90;;;;;;5035734;28;20099;-79
2021/12/31 11:10:16;;;;;;;14.75;7.95;;;12.60;99.90;;;;;;5053501;28;20457;-81
2021/12/31 11:12:46;;;;;;;10.57;7.88;;;12.60;99.90;;;;;;5035826;28;20128;-81
2021/12/31 11:15:13;;;;;;;17.52;11.63;;;12.50;99.90;;;;;;5035712;28;20045;-82
2021/12/31 11:17:39;;;;;;;14.88;8.27;;;12.60;99.90;;;;;;5035503;28;20394;-79
2021/12/31 11:20:07;;;;;;;9.55;5.00;;;12.60;99.90;;;;;;5035298;28;20094;-80
2021/12/31 11:22:32;;;;;;;14.70;9.27;;;12.50;99.90;;;;;;5053196;28;20047;-79
2021/12/31 11:25:16;;;;;;;11.57;6.07;;;12.50;99.90;;;;;;5052734;28;20436;-78
2021/12/31 11:27:47;;;;;;;22.70;12.38;;;12.50;99.90;;;;;;5052991;28;20438;-79
2021/12/31 11:30:38;;;;;;;18.23;9.10;;;12.60;99.90;;;;;;5053026;28;20037;-79
2021/12/31 11:33:14;;;;;;;15.73;6.75;;;12.50;99.90;;;;;;5052936;28;20429;-79
2021/12/31 11:35:56;;;;;;;11.50;5.18;;;12.50;99.90;;;;;;5034935;28;20116;-84
2021/12/31 11:38:21;;;;;;;10.88;5.70;;;12.50;99.90;;;;;;5053041;28;20115;-78
2021/12/31 11:41:00;;;;;;;18.52;12.63;;;12.70;99.90;;;;;;5052697;28;20461;-76
2021/12/31 11:43:27;;;;;;;10.90;7.65;;;12.30;99.90;;;;;;5034011;28;20561;-78
2021/12/31 11:46:11;;;;;;;17.25;7.07;;;12.50;99.90;;;;;;5053411;28;20037;-80
2021/12/31 11:51:28;;;;;;;11.75;5.57;;;12.10;99.90;;;;;;5053507;28;20049;-77
2021/12/31 11:54:00;;;;;;;10.80;5.55;;;12.20;99.90;;;;;;5052620;28;20049;-76
2021/12/31 11:56:37;;;;;;;16.65;10.55;;;12.20;99.90;;;;;;5052541;28;20449;-80
2021/12/31 11:59:17;;;;;;;11.00;5.03;;;12.10;99.90;;;;;;5052923;28;20120;-77
2021/12/31 12:01:47;;;;;;;8.90;4.03;;;12.10;99.90;;;;;;5062243;28;20033;-75
2021/12/31 12:04:50;;;;;;;10.65;4.47;;;12.00;99.90;;;;;;5037871;28;20053;-82
2021/12/31 12:07:36;;;;;;;16.45;5.43;;;12.00;99.90;;;;;;5054699;28;20049;-79
2021/12/31 12:10:01;;;;;;;10.15;4.00;;;12.00;99.90;;;;;;5034712;28;20063;-78
2021/12/31 12:12:32;;;;;;;12.10;5.60;;;12.00;99.90;;;;;;5052477;28;20486;-82
2021/12/31 12:15:00;;;;;;;12.27;5.65;;;11.90;99.90;;;;;;5052125;28;20048;-82
2021/12/31 12:17:29;;;;;;;15.27;8.13;;;12.00;99.90;;;;;;5034289;28;20095;-79
2021/12/31 12:19:57;;;;;;;11.02;5.50;;;11.90;99.90;;;;;;5052532;28;20124;-79
2021/12/31 12:22:34;;;;;;;16.35;10.20;;;12.10;99.90;;;;;;5052404;28;20041;-82
2021/12/31 12:25:04;;;;;;;27.23;22.42;;;11.90;99.90;;;;;;5034298;28;20052;-79
2021/12/31 12:27:31;;;;;;;50.72;45.28;;;11.90;99.90;;;;;;5052737;28;20456;-82
2021/12/31 12:29:57;;;;;;;48.78;43.47;;;11.80;99.90;;;;;;5052115;28;20073;-85
2021/12/31 12:32:51;;;;;;;15.95;12.10;;;11.70;99.90;;;;;;5034427;28;20053;-83
2021/12/31 12:35:21;;;;;;;18.17;12.93;;;11.70;99.90;;;;;;5052281;28;20124;-86
2021/12/31 12:37:58;;;;;;;15.70;11.45;;;11.70;99.90;;;;;;5052028;28;20044;-84
2021/12/31 12:40:45;;;;;;;16.10;13.43;;;11.60;99.90;;;;;;5051888;28;20048;-83
2021/12/31 12:43:23;;;;;;;15.25;7.28;;;11.60;99.90;;;;;;5034282;28;20055;-82
2021/12/31 12:45:55;;;;;;;20.00;11.77;;;11.60;99.90;;;;;;5034380;28;20418;-83
2021/12/31 12:48:39;;;;;;;18.95;15.55;;;11.60;99.90;;;;;;5051958;28;20573;-83
2021/12/31 12:51:13;;;;;;;17.98;12.90;;;11.60;99.90;;;;;;5034219;28;20041;-86
2021/12/31 12:53:48;;;;;;;20.98;14.98;;;11.70;99.90;;;;;;5053834;28;20419;-83